Hancock, ME (04640)

6:59 AM EDT on July 26, 2016 (GMT -0400)
Hancock-Point Road | | Change Station
Active Advisory: Special Statement

Elev 135 ft 44.49 °N, 68.25 °W | Updated 1 second ago

Overcast
Overcast
69.6 °F
Feels Like 69.6 °F
N
0.0
Wind Variable Wind from South
Gusts 0.0 mph

Today
High -- | Low -- °F
--% Chance of Precip.
Yesterday
High -- | Low -- °F
Precip. -- in
Pressure 29.74 in
Visibility 2.0 miles
Clouds Overcast 200 ft
Dew Point 64 °F
Humidity 81%
Rainfall 0.30 in
Snow Depth Not available.
5:13 AM 8:04 PM
Waning Gibbous, 56% visible
SPECI KBHB 261058Z AUTO 00000KT 2SM BR OVC002 20/20 A2974 RMK AO2 VIS 3/4V5
Pressure 29.74 in
Visibility 2.0 miles
Clouds Overcast 200 ft
Dew Point 64 °F
Humidity 81%
Rainfall 0.30 in
Snow Depth Not available.
5:13 AM 8:04 PM
Waning Gibbous, 56% visible
SPECI KBHB 261058Z AUTO 00000KT 2SM BR OVC002 20/20 A2974 RMK AO2 VIS 3/4V5

10-Day Weather Forecast

Almanac

Astronomy

Jul. 26, 2016 Rise Set
Actual Time
Civil Twilight
Nautical Twilight
Astronomical Twilight
Moon
Length of Visible Light
Length of Day
Tomorrow will be .
, % of the Moon is Illuminated

Today's Extremes

State Highs State Lows

Community

WunderPhotos

Upload Photos

1,927,557 photos uploaded!

WunderBlog® & News

Nearby

Air Quality

  Air Quality AQ Index Pollutant
Not available.

Snow Depth

Station Depth Elevation

Earthquake Activity

City Distance Mag. Time & Date
Minimum magnitude displayed is 2.5.

Coastal Water Temperatures

Place Temperature

Stations

Nearby Weather Stations

Station Location Temp. Windchill Dew Point Humidity Wind Precip. Elev Updated Type
                   

Watches & Warnings

Special Statement
Issued: 5:26 AM EDT Jul. 26, 2016 – National Weather Service

... Patchy dense fog early this morning...

Areas of fog formed across most of downeast overnight. Patches of
locally dense fog are expected early this morning. If you are
traveling, be on the lookout for rapid changes in visibility over
short distances. The fog will lift by 8 am this morning across the
region.


Cb


526 am EDT Tue Jul 26 2016

... Patchy dense fog early this morning...

Areas of fog formed across most of downeast overnight. Patches of
locally dense fog are expected early this morning. If you are
traveling, be on the lookout for rapid changes in visibility over
short distances. The fog will lift by 8 am this morning across the
region.


Cb